Time;durP1;ratioP1;P1;durP2;ratioP2;P2;SDS_P1;SDS_P2;PMS_P1;PMS_P2;Temp;Humidity;BMP_temperature;BMP_pressure;BME280_temperature;BME280_humidity;BME280_pressure;Samples;Min_cycle;Max_cycle;Signal;HPM_P1;HPM_P2
2022/01/29 00:00:09;;;;;;;61.37;22.00;;;;;;;1.50;100.00;100209.52;1795372;80;21029;-88
2022/01/29 00:02:35;;;;;;;69.47;23.35;;;;;;;1.49;100.00;100203.39;1795210;80;21100;-88
2022/01/29 00:05:01;;;;;;;68.72;22.77;;;;;;;1.48;100.00;100207.08;1795464;80;21121;-87
2022/01/29 00:07:27;;;;;;;68.12;22.00;;;;;;;1.50;100.00;100201.55;1795785;79;21561;-88
2022/01/29 00:10:00;;;;;;;67.55;22.58;;;;;;;1.51;100.00;100204.52;1795522;80;20930;-88
2022/01/29 00:12:20;;;;;;;68.67;21.70;;;;;;;1.51;100.00;100207.98;1786962;80;20982;-87
2022/01/29 00:14:46;;;;;;;62.88;21.80;;;;;;;1.52;100.00;100204.81;1795417;80;20918;-87
2022/01/29 00:17:13;;;;;;;63.83;20.20;;;;;;;1.51;100.00;100205.85;1795262;80;20902;-88
2022/01/29 00:19:40;;;;;;;69.75;22.55;;;;;;;1.51;100.00;100202.67;1794696;80;21159;-88
2022/01/29 00:22:07;;;;;;;66.40;21.33;;;;;;;1.52;100.00;100208.80;1795006;80;20962;-88
2022/01/29 00:24:33;;;;;;;65.65;22.93;;;;;;;1.51;100.00;100209.31;1795095;80;21033;-89
2022/01/29 00:27:02;;;;;;;62.27;20.57;;;;;;;1.54;100.00;100204.11;1795114;80;21061;-88
2022/01/29 00:29:27;;;;;;;64.72;21.12;;;;;;;1.53;100.00;100195.33;1794534;80;21053;-87
2022/01/29 00:31:52;;;;;;;65.50;21.02;;;;;;;1.51;100.00;100192.06;1795154;80;21133;-87
2022/01/29 00:34:18;;;;;;;61.42;20.10;;;;;;;1.49;100.00;100190.11;1795486;78;20953;-87
2022/01/29 00:36:44;;;;;;;64.30;20.80;;;;;;;1.49;100.00;100191.96;1795348;79;21549;-87
2022/01/29 00:39:10;;;;;;;59.10;19.85;;;;;;;1.49;100.00;100183.48;1795244;79;20975;-88
2022/01/29 00:41:36;;;;;;;65.95;21.23;;;;;;;1.49;100.00;100180.82;1795471;78;21009;-87
2022/01/29 00:44:02;;;;;;;62.53;20.52;;;;;;;1.48;100.00;100187.17;1766260;80;21023;-88
2022/01/29 00:46:28;;;;;;;66.40;21.70;;;;;;;1.49;100.00;100182.67;1795279;80;22066;-88
2022/01/29 00:48:53;;;;;;;64.55;19.87;;;;;;;1.48;100.00;100186.36;1791061;80;20934;-88
2022/01/29 00:51:19;;;;;;;66.28;21.05;;;;;;;1.46;100.00;100180.44;1795536;80;20855;-88
2022/01/29 00:53:45;;;;;;;63.50;19.92;;;;;;;1.46;100.00;100183.09;1795454;80;20986;-88
2022/01/29 00:56:11;;;;;;;57.48;19.50;;;;;;;1.44;100.00;100180.66;1795698;80;21162;-88
2022/01/29 00:58:37;;;;;;;56.88;18.32;;;;;;;1.43;100.00;100181.66;1795579;80;20856;-88
2022/01/29 01:01:03;;;;;;;57.27;18.77;;;;;;;1.42;100.00;100173.93;1795153;80;20966;-87
2022/01/29 01:03:29;;;;;;;61.80;19.75;;;;;;;1.40;100.00;100179.95;1795447;80;20875;-88
2022/01/29 01:05:55;;;;;;;61.70;20.35;;;;;;;1.40;100.00;100171.47;1795249;78;20970;-88
2022/01/29 01:08:20;;;;;;;61.00;19.85;;;;;;;1.39;100.00;100171.17;1795444;80;21134;-88
2022/01/29 01:10:46;;;;;;;59.67;20.52;;;;;;;1.39;100.00;100177.81;1795395;80;20931;-89
2022/01/29 01:13:13;;;;;;;58.02;19.05;;;;;;;1.40;100.00;100171.98;1795379;79;21297;-88
2022/01/29 01:15:39;;;;;;;57.65;19.45;;;;;;;1.37;100.00;100175.87;1795502;80;21018;-88
2022/01/29 01:18:04;;;;;;;57.88;19.57;;;;;;;1.37;100.00;100173.22;1795999;80;21589;-89
2022/01/29 01:20:30;;;;;;;62.98;20.88;;;;;;;1.36;100.00;100180.38;1795472;80;21062;-88
2022/01/29 01:22:56;;;;;;;58.73;20.97;;;;;;;1.35;100.00;100172.60;1795436;79;20871;-88
2022/01/29 01:25:22;;;;;;;62.05;21.10;;;;;;;1.33;100.00;100172.83;1795516;80;21739;-88
2022/01/29 01:27:48;;;;;;;58.28;19.90;;;;;;;1.32;100.00;100168.55;1795504;80;20875;-88
2022/01/29 01:30:14;;;;;;;58.70;20.37;;;;;;;1.32;100.00;100175.19;1795388;80;20887;-88
2022/01/29 01:32:40;;;;;;;60.10;20.55;;;;;;;1.31;100.00;100174.05;1795885;78;21353;-88
2022/01/29 01:35:20;;;;;;;66.97;21.00;;;;;;;1.30;100.00;100169.78;1766529;80;21046;-89
2022/01/29 01:37:50;;;;;;;55.23;19.32;;;;;;;1.31;100.00;100171.41;1790456;78;20975;-89
2022/01/29 01:40:08;;;;;;;60.90;20.65;;;;;;;1.30;100.00;100173.77;1790640;80;20966;-88
2022/01/29 01:42:34;;;;;;;59.10;20.92;;;;;;;1.27;100.00;100166.22;1794963;80;20962;-89
2022/01/29 01:45:00;;;;;;;58.83;19.98;;;;;;;1.29;100.00;100169.45;1795489;78;20995;-90
2022/01/29 01:47:26;;;;;;;64.32;21.48;;;;;;;1.28;100.00;100171.30;1795553;80;20926;-89
2022/01/29 01:49:51;;;;;;;57.13;20.68;;;;;;;1.25;100.00;100173.05;1795542;78;20867;-88
2022/01/29 01:52:18;;;;;;;61.45;21.68;;;;;;;1.26;100.00;100176.00;1795503;80;20919;-89
2022/01/29 01:54:44;;;;;;;61.00;20.72;;;;;;;1.26;100.00;100175.19;1795538;80;21022;-88
2022/01/29 01:57:10;;;;;;;62.65;21.80;;;;;;;1.26;100.00;100180.50;1795349;80;21120;-89
2022/01/29 01:59:36;;;;;;;62.85;20.80;;;;;;;1.26;100.00;100182.63;1795447;78;21053;-89
2022/01/29 02:02:03;;;;;;;64.45;20.60;;;;;;;1.24;100.00;100179.39;1795424;78;20939;-88
2022/01/29 02:04:32;;;;;;;60.20;21.07;;;;;;;1.24;100.00;100176.73;1795568;79;21051;-88
2022/01/29 02:06:59;;;;;;;57.93;20.40;;;;;;;1.27;100.00;100176.84;1795072;78;21101;-89
2022/01/29 02:09:25;;;;;;;61.00;19.27;;;;;;;1.28;100.00;100179.78;1795167;80;21174;-88
2022/01/29 02:11:57;;;;;;;61.98;20.88;;;;;;;1.30;100.00;100178.55;1795234;80;21006;-88
2022/01/29 02:14:29;;;;;;;61.00;20.40;;;;;;;1.31;100.00;100177.52;1724453;81;21036;-88
2022/01/29 02:16:53;;;;;;;63.60;20.35;;;;;;;1.32;100.00;100179.17;1720413;83;21177;-89
2022/01/29 02:19:19;;;;;;;59.13;20.68;;;;;;;1.31;100.00;100179.36;1724105;82;21260;-88
2022/01/29 02:21:45;;;;;;;59.13;19.37;;;;;;;1.30;100.00;100181.21;1724335;83;21088;-88
2022/01/29 02:24:11;;;;;;;58.40;19.90;;;;;;;1.30;100.00;100179.08;1724344;83;20878;-89
2022/01/29 02:26:38;;;;;;;53.42;19.12;;;;;;;1.30;100.00;100181.73;1724228;81;21552;-89
2022/01/29 02:29:04;;;;;;;59.80;19.20;;;;;;;1.30;100.00;100176.41;1724286;83;20980;-88
2022/01/29 02:31:33;;;;;;;60.70;19.48;;;;;;;1.28;100.00;100181.11;1724338;81;21158;-89
2022/01/29 02:33:59;;;;;;;61.55;21.37;;;;;;;1.29;100.00;100177.42;1723832;82;21009;-87
2022/01/29 02:36:25;;;;;;;57.88;19.25;;;;;;;1.27;100.00;100176.32;1724270;83;21058;-87
2022/01/29 02:38:51;;;;;;;60.30;19.65;;;;;;;1.26;100.00;100175.19;1724205;83;21048;-88
2022/01/29 02:41:18;;;;;;;55.23;19.65;;;;;;;1.24;100.00;100176.73;1724301;81;20933;-86
2022/01/29 02:43:47;;;;;;;61.63;19.07;;;;;;;1.22;100.00;100180.63;1724148;83;21329;-87
2022/01/29 02:48:56;;;;;;;57.98;19.77;;;;;;;1.26;100.00;100176.52;1725405;83;20957;-88
2022/01/29 02:51:24;;;;;;;58.90;19.12;;;;;;;1.29;100.00;100184.87;1723834;83;21584;-88
2022/01/29 02:53:50;;;;;;;63.85;19.62;;;;;;;1.30;100.00;100177.23;1724300;83;22307;-89
2022/01/29 02:56:16;;;;;;;54.42;18.87;;;;;;;1.30;100.00;100173.77;1724251;83;21588;-89
2022/01/29 02:58:43;;;;;;;60.40;20.95;;;;;;;1.34;100.00;100178.95;1724405;83;21102;-89
2022/01/29 03:01:09;;;;;;;61.53;20.20;;;;;;;1.34;100.00;100185.06;1723962;83;21012;-89
2022/01/29 03:03:35;;;;;;;56.58;19.82;;;;;;;1.34;100.00;100181.59;1724077;83;21080;-90
2022/01/29 03:06:03;;;;;;;61.60;19.82;;;;;;;1.36;100.00;100180.89;1725045;82;20905;-89
2022/01/29 03:08:29;;;;;;;58.23;19.62;;;;;;;1.35;100.00;100176.09;1729492;81;21068;-89
2022/01/29 03:10:55;;;;;;;69.12;21.93;;;;;;;1.37;100.00;100182.51;1757435;79;21136;-89
2022/01/29 03:13:21;;;;;;;56.73;19.67;;;;;;;1.39;100.00;100182.31;1798507;79;20929;-89
2022/01/29 03:15:47;;;;;;;56.13;20.05;;;;;;;1.39;100.00;100180.47;1798538;79;20883;-89
2022/01/29 03:18:13;;;;;;;58.55;19.32;;;;;;;1.41;100.00;100182.38;1798599;79;21045;-89
2022/01/29 03:20:39;;;;;;;63.63;20.02;;;;;;;1.41;100.00;100177.07;1798380;79;21620;-89
2022/01/29 03:23:04;;;;;;;59.67;19.85;;;;;;;1.42;100.00;100184.03;1798450;79;21112;-89
2022/01/29 03:25:30;;;;;;;56.28;18.95;;;;;;;1.44;100.00;100183.31;1798380;79;20823;-91
2022/01/29 03:27:56;;;;;;;62.30;20.25;;;;;;;1.46;100.00;100185.75;1798490;78;20862;-91
2022/01/29 03:30:22;;;;;;;60.00;20.70;;;;;;;1.48;100.00;100183.70;1798575;79;20847;-90
2022/01/29 03:32:48;;;;;;;66.02;20.23;;;;;;;1.51;100.00;100186.75;1798261;78;20946;-90
2022/01/29 03:35:16;;;;;;;59.15;19.07;;;;;;;1.53;100.00;100190.50;1798368;79;21139;-90
2022/01/29 03:37:42;;;;;;;63.15;20.92;;;;;;;1.52;100.00;100184.38;1797886;79;21474;-92
2022/01/29 03:40:09;;;;;;;60.28;19.65;;;;;;;1.52;100.00;100187.55;1771037;79;20974;-92
2022/01/29 03:42:43;;;;;;;60.65;19.20;;;;;;;1.51;100.00;100193.38;1798390;79;20935;-92
2022/01/29 03:45:08;;;;;;;55.65;19.12;;;;;;;1.49;100.00;100198.08;1793680;79;21408;-92
2022/01/29 03:47:34;;;;;;;57.50;19.12;;;;;;;1.50;100.00;100193.58;1797924;79;21083;-92
2022/01/29 03:50:03;;;;;;;55.15;19.23;;;;;;;1.47;100.00;100191.34;1798249;79;22123;-94
2022/01/29 03:52:29;;;;;;;53.35;17.80;;;;;;;1.48;100.00;100193.81;1798022;78;20924;-94
2022/01/29 03:54:55;;;;;;;49.83;18.00;;;;;;;1.47;100.00;100200.16;1798324;79;20867;-91
2022/01/29 03:57:21;;;;;;;52.90;18.35;;;;;;;1.47;100.00;100198.83;1798396;78;20982;-93
2022/01/29 03:59:47;;;;;;;56.48;19.05;;;;;;;1.49;100.00;100194.61;1798371;79;21076;-93
2022/01/29 04:02:13;;;;;;;52.60;18.17;;;;;;;1.51;100.00;100195.23;1798405;79;20871;-92
2022/01/29 04:04:38;;;;;;;52.13;18.87;;;;;;;1.48;100.00;100195.65;1798344;79;20879;-93
2022/01/29 04:07:10;;;;;;;50.28;16.85;;;;;;;1.47;100.00;100190.86;1795119;78;20867;-93
2022/01/29 04:09:33;;;;;;;52.83;17.92;;;;;;;1.48;100.00;100198.31;1788007;80;20995;-92
2022/01/29 04:11:59;;;;;;;51.98;18.40;;;;;;;1.47;100.00;100200.64;1792197;80;21091;-92
2022/01/29 04:14:31;;;;;;;54.63;18.92;;;;;;;1.49;100.00;100198.59;1763658;80;21569;-94
2022/01/29 04:16:52;;;;;;;54.25;19.27;;;;;;;1.49;100.00;100194.61;1787930;80;21022;-92
2022/01/29 04:19:18;;;;;;;54.53;17.73;;;;;;;1.52;100.00;100201.64;1792534;78;21510;-91
2022/01/29 04:21:44;;;;;;;52.90;18.57;;;;;;;1.50;100.00;100197.08;1792753;80;20954;-93
2022/01/29 04:24:10;;;;;;;52.88;18.48;;;;;;;1.48;100.00;100197.79;1792752;80;21010;-94
2022/01/29 04:26:35;;;;;;;52.90;19.07;;;;;;;1.48;100.00;100195.13;1792864;80;20875;-94
2022/01/29 04:29:06;;;;;;;53.85;18.55;;;;;;;1.50;100.00;100205.04;1792688;80;20993;-93
2022/01/29 04:31:40;;;;;;;55.08;18.62;;;;;;;1.52;100.00;100201.64;1792363;80;21748;-93
2022/01/29 04:34:00;;;;;;;47.90;17.87;;;;;;;1.54;100.00;100206.76;1788235;80;21057;-94
2022/01/29 04:36:26;;;;;;;55.75;18.00;;;;;;;1.53;100.00;100205.11;1792821;78;21132;-94
2022/01/29 04:38:51;;;;;;;51.80;17.98;;;;;;;1.53;100.00;100201.12;1794135;80;20867;-94
2022/01/29 04:41:17;;;;;;;56.23;19.62;;;;;;;1.54;100.00;100202.77;1793030;80;20950;-92
2022/01/29 04:43:43;;;;;;;60.67;19.60;;;;;;;1.54;100.00;100201.45;1758588;80;20856;-94
2022/01/29 04:46:09;;;;;;;66.30;21.62;;;;;;;1.53;100.00;100205.11;1793117;80;20990;-93
2022/01/29 04:48:35;;;;;;;65.50;21.57;;;;;;;1.55;100.00;100205.72;1792864;80;21102;-93
2022/01/29 04:51:00;;;;;;;66.05;21.42;;;;;;;1.55;100.00;100208.38;1792530;80;20879;-94
2022/01/29 04:53:26;;;;;;;70.10;22.20;;;;;;;1.54;100.00;100213.40;1792679;78;21013;-91
2022/01/29 04:55:52;;;;;;;71.97;22.10;;;;;;;1.55;100.00;100211.84;1792638;80;20918;-91
2022/01/29 04:58:18;;;;;;;67.50;21.68;;;;;;;1.56;100.00;100214.02;1792706;80;21048;-92
2022/01/29 05:00:44;;;;;;;62.38;21.73;;;;;;;1.57;100.00;100218.29;1792511;78;21890;-91
2022/01/29 05:03:13;;;;;;;67.42;22.50;;;;;;;1.58;100.00;100212.75;1792651;80;21617;-93
2022/01/29 05:05:41;;;;;;;66.65;21.77;;;;;;;1.60;100.00;100212.55;1763915;80;21049;-92
2022/01/29 05:08:08;;;;;;;76.57;23.38;;;;;;;1.63;100.00;100219.30;1789828;78;22231;-91
2022/01/29 05:10:35;;;;;;;77.03;24.75;;;;;;;1.63;100.00;100218.77;1789410;80;21029;-91
2022/01/29 05:13:11;;;;;;;73.02;23.98;;;;;;;1.65;100.00;100221.20;1789468;78;20967;-91
2022/01/29 05:29:12;;;;;;;59.48;18.87;;;;;;;1.77;100.00;100240.80;1744589;82;21031;-94
2022/01/29 05:34:07;;;;;;;47.17;17.02;;;;;;;1.77;100.00;100241.60;1693362;84;21153;-91
2022/01/29 05:36:34;;;;;;;48.42;16.20;;;;;;;1.82;100.00;100250.25;1694020;84;21541;-91
2022/01/29 05:39:02;;;;;;;47.05;16.35;;;;;;;1.85;100.00;100249.83;1670432;84;21645;-92
2022/01/29 05:41:28;;;;;;;33.80;14.45;;;;;;;1.89;100.00;100255.56;1693849;84;20955;-93
2022/01/29 05:43:55;;;;;;;38.28;14.10;;;;;;;1.93;100.00;100258.89;1693499;84;21086;-91
2022/01/29 05:46:21;;;;;;;44.95;14.87;;;;;;;1.98;100.00;100260.41;1693753;84;21757;-92
2022/01/29 05:48:47;;;;;;;49.98;16.52;;;;;;;2.04;100.00;100269.38;1694046;84;21151;-92
2022/01/29 05:51:13;;;;;;;42.40;13.83;;;;;;;2.11;100.00;100268.83;1693945;84;21084;-94
2022/01/29 05:53:39;;;;;;;35.78;13.20;;;;;;;2.12;100.00;100275.80;1693590;84;21029;-95
2022/01/29 05:56:06;;;;;;;34.85;13.43;;;;;;;2.12;100.00;100274.47;1693715;84;21065;-95
2022/01/29 05:58:32;;;;;;;37.73;13.48;;;;;;;2.12;100.00;100279.78;1693547;84;20998;-92
2022/01/29 06:00:58;;;;;;;38.70;14.30;;;;;;;2.11;100.00;100283.96;1693428;84;21445;-93
2022/01/29 06:03:24;;;;;;;43.68;14.70;;;;;;;2.13;100.00;100284.06;1693574;84;21104;-93
2022/01/29 06:05:50;;;;;;;43.13;15.23;;;;;;;2.15;100.00;100282.53;1693749;84;21545;-93
2022/01/29 06:08:16;;;;;;;46.45;15.03;;;;;;;2.18;100.00;100284.24;1694254;84;20895;-94
2022/01/29 06:10:42;;;;;;;46.75;15.72;;;;;;;2.19;100.00;100291.70;1694611;84;21025;-94
2022/01/29 06:13:14;;;;;;;49.25;15.35;;;;;;;2.20;100.00;100295.46;1694445;84;21113;-94
2022/01/29 06:15:48;;;;;;;48.48;14.70;;;;;;;2.22;100.00;100289.95;1710149;83;21478;-93
2022/01/29 06:18:19;;;;;;;55.85;17.17;;;;;;;2.27;100.00;100295.45;1716215;83;21103;-94
2022/01/29 06:20:52;;;;;;;50.75;17.05;;;;;;;2.30;100.00;100294.22;1716142;82;21029;-96
2022/01/29 06:23:23;;;;;;;;;;;;;;;2.35;100.00;100302.34;1658497;86;21072;-94
2022/01/29 06:25:47;;;;;;;37.65;13.88;;;;;;;2.37;100.00;100298.45;1656369;85;20249;-94
2022/01/29 06:28:13;;;;;;;34.43;13.50;;;;;;;2.42;100.00;100295.97;1657295;85;21080;-94
2022/01/29 06:30:39;;;;;;;36.80;12.75;;;;;;;2.47;100.00;100294.83;1678456;82;21019;-93
2022/01/29 06:33:10;;;;;;;34.20;13.32;;;;;;;2.52;100.00;100299.48;1723679;81;20904;-93
2022/01/29 06:35:40;;;;;;;29.27;12.25;;;;;;;2.54;100.00;100296.62;1723105;81;21082;-92
2022/01/29 06:38:08;;;;;;;30.97;12.98;;;;;;;2.58;100.00;100293.83;1723479;81;21034;-93
2022/01/29 06:40:36;;;;;;;35.58;13.03;;;;;;;2.59;100.00;100294.95;1723298;81;21472;-93
2022/01/29 06:43:04;;;;;;;33.35;12.55;;;;;;;2.62;100.00;100298.52;1723157;81;21160;-93
2022/01/29 06:45:32;;;;;;;32.58;12.47;;;;;;;2.68;100.00;100295.52;1723491;81;21023;-92
2022/01/29 06:47:58;;;;;;;34.03;12.25;;;;;;;2.66;100.00;100299.70;1723488;83;21393;-94
2022/01/29 06:50:25;;;;;;;33.60;12.43;;;;;;;2.66;100.00;100298.89;1723467;81;21126;-92
2022/01/29 06:52:52;;;;;;;32.10;13.08;;;;;;;2.71;100.00;100297.75;1722857;81;21082;-91
2022/01/29 06:55:18;;;;;;;32.63;12.93;;;;;;;2.85;100.00;100304.58;1723144;81;21630;-91
2022/01/29 06:57:45;;;;;;;33.30;13.95;;;;;;;2.97;100.00;100306.02;1698672;82;33279;-91
2022/01/29 07:00:13;;;;;;;40.45;14.38;;;;;;;3.07;100.00;100297.57;1739847;80;21026;-92
2022/01/29 07:02:39;;;;;;;31.48;12.10;;;;;;;3.21;100.00;100300.91;1789093;80;21010;-91
2022/01/29 07:05:08;;;;;;;32.67;12.65;;;;;;;3.41;100.00;100298.88;1789467;80;21880;-93
2022/01/29 07:07:34;;;;;;;30.52;12.82;;;;;;;3.60;100.00;100300.55;1790098;78;21011;-94
2022/01/29 07:10:01;;;;;;;36.10;13.30;;;;;;;3.74;100.00;100306.55;1792523;80;20995;-92
2022/01/29 07:12:30;;;;;;;33.73;13.60;;;;;;;3.89;100.00;100309.38;1792847;80;21057;-94
2022/01/29 07:14:57;;;;;;;34.10;13.75;;;;;;;3.96;100.00;100312.77;1730199;83;21546;-94
2022/01/29 07:17:24;;;;;;;33.20;12.93;;;;;;;3.96;100.00;100312.23;1730507;83;21475;-93
2022/01/29 07:19:52;;;;;;;34.40;13.62;;;;;;;4.02;100.00;100322.01;1729780;83;20990;-93
2022/01/29 07:22:19;;;;;;;32.93;13.65;;;;;;;4.05;100.00;100310.89;1744721;79;21058;-92
2022/01/29 07:24:46;;;;;;;36.20;13.72;;;;;;;4.16;100.00;100316.53;1763196;81;21038;-92
2022/01/29 07:27:16;;;;;;;36.85;13.68;;;;;;;4.25;100.00;100315.17;1762922;80;21003;-89
2022/01/29 07:29:46;;;;;;;36.40;14.10;;;;;;;4.40;100.00;100316.11;1761868;80;21046;-88
2022/01/29 07:32:14;;;;;;;34.88;13.58;;;;;;;4.48;100.00;100313.14;1743856;80;21452;-89
2022/01/29 07:34:41;;;;;;;31.15;13.00;;;;;;;4.50;100.00;100320.38;1724458;83;21091;-90
2022/01/29 07:37:07;;;;;;;29.85;12.93;;;;;;;4.56;100.00;100324.83;1724563;83;21199;-90
2022/01/29 07:39:33;;;;;;;33.28;12.70;;;;;;;4.68;100.00;100331.02;1724550;83;21869;-88
2022/01/29 07:41:59;;;;;;;34.13;12.78;;;;;;;4.75;100.00;100331.72;1725010;83;21047;-87
2022/01/29 07:44:26;;;;;;;31.87;12.93;;;;;;;4.61;100.00;100316.94;1724576;83;21054;-88
2022/01/29 07:46:55;;;;;;;36.48;13.08;;;;;;;4.65;100.00;100338.67;1684597;83;21596;-89
2022/01/29 07:49:23;;;;;;;33.33;13.18;;;;;;;4.62;100.00;100343.09;1678553;84;21105;-88
2022/01/29 07:51:49;;;;;;;31.80;12.55;;;;;;;4.58;100.00;100342.74;1679050;84;21056;-89
2022/01/29 07:54:15;;;;;;;34.65;12.70;;;;;;;4.47;100.00;100339.50;1679097;84;21141;-89
2022/01/29 07:56:41;;;;;;;32.05;12.23;;;;;;;4.47;100.00;100347.51;1678912;84;21001;-89
2022/01/29 07:59:07;;;;;;;31.80;11.97;;;;;;;4.61;100.00;100350.30;1679290;84;21092;-88
2022/01/29 08:01:33;;;;;;;30.75;12.13;;;;;;;4.63;100.00;100353.56;1655813;85;21045;-89
2022/01/29 08:04:00;;;;;;;37.65;13.62;;;;;;;4.66;100.00;100354.97;1678894;84;21140;-89
2022/01/29 08:06:29;;;;;;;28.83;11.63;;;;;;;4.68;100.00;100350.23;1656156;84;21411;-90
2022/01/29 08:08:57;;;;;;;30.90;11.70;;;;;;;4.68;100.00;100356.38;1667242;84;21058;-90
2022/01/29 08:11:24;;;;;;;32.13;11.55;;;;;;;4.67;100.00;100356.59;1664767;86;21529;-90
2022/01/29 08:13:50;;;;;;;29.82;11.85;;;;;;;4.72;100.00;100358.06;1665286;86;21050;-90
2022/01/29 08:16:16;;;;;;;33.00;11.90;;;;;;;4.78;100.00;100359.82;1642284;86;21014;-91
2022/01/29 08:18:45;;;;;;;28.42;10.78;;;;;;;4.90;100.00;100368.67;1665227;86;21907;-91
2022/01/29 08:21:15;;;;;;;27.02;10.55;;;;;;;4.97;100.00;100365.90;1664349;86;21115;-92
2022/01/29 08:23:41;;;;;;;31.85;11.85;;;;;;;4.92;100.00;100371.13;1665417;86;21034;-92
2022/01/29 08:26:07;;;;;;;29.63;11.10;;;;;;;4.86;100.00;100371.52;1665029;86;21566;-92
2022/01/29 08:28:34;;;;;;;30.20;11.65;;;;;;;4.86;100.00;100373.38;1693679;81;20991;-91
2022/01/29 08:31:01;;;;;;;28.42;11.53;;;;;;;4.83;100.00;100372.50;1767132;78;21041;-93
2022/01/29 08:33:27;;;;;;;30.52;11.43;;;;;;;4.81;100.00;100379.39;1736560;81;21004;-94
2022/01/29 08:35:54;;;;;;;27.95;10.68;;;;;;;4.68;100.00;100378.25;1736097;82;22223;-94
2022/01/29 08:38:21;;;;;;;30.95;10.15;;;;;;;4.59;100.00;100375.08;1736314;81;21040;-95
2022/01/29 08:40:47;;;;;;;32.75;10.25;;;;;;;4.66;100.00;100373.66;1736846;82;20993;-94
2022/01/29 08:43:13;;;;;;;29.02;10.05;;;;;;;4.63;100.00;100377.58;1736418;81;21091;-94
2022/01/29 08:45:39;;;;;;;22.80;9.03;;;;;;;4.61;100.00;100380.98;1736842;82;21087;-96
2022/01/29 08:48:11;;;;;;;20.32;8.68;;;;;;;4.60;100.00;100380.70;1727790;79;21333;-96
2022/01/29 08:50:55;;;;;;;16.02;7.03;;;;;;;4.65;100.00;100378.70;1693944;79;21021;-96
2022/01/29 09:12:17;;;;;;;7.42;3.70;;;;;;;4.95;100.00;100392.84;1622889;83;20991;-96
2022/01/29 09:17:25;;;;;;;5.40;3.50;;;;;;;4.91;100.00;100389.51;1553528;87;21117;-95
2022/01/29 09:19:51;;;;;;;8.33;4.03;;;;;;;4.88;100.00;100390.80;1538386;89;20989;-96
2022/01/29 09:22:17;;;;;;;10.72;4.17;;;;;;;4.93;100.00;100388.77;1583705;86;21101;-96
2022/01/29 09:24:43;;;;;;;7.28;3.95;;;;;;;4.89;100.00;100399.09;1599889;87;21074;-96
2022/01/29 09:27:09;;;;;;;7.33;3.92;;;;;;;4.86;100.00;100390.73;1672677;84;21600;-96
2022/01/29 09:29:35;;;;;;;8.65;4.25;;;;;;;4.91;100.00;100393.52;1678876;82;21056;-93
2022/01/29 09:32:03;;;;;;;8.13;4.20;;;;;;;4.98;100.00;100392.39;1749139;82;21740;-93
2022/01/29 09:34:29;;;;;;;7.58;4.10;;;;;;;4.97;100.00;100392.60;1748987;80;22016;-92
2022/01/29 09:36:55;;;;;;;9.18;3.80;;;;;;;5.02;100.00;100396.75;1714427;82;21205;-92
2022/01/29 09:39:22;;;;;;;8.98;3.58;;;;;;;5.12;100.00;100402.89;1748939;82;20945;-91
2022/01/29 09:41:49;;;;;;;7.95;3.80;;;;;;;5.17;100.00;100403.81;1748562;80;22309;-91
2022/01/29 09:44:15;;;;;;;8.70;3.77;;;;;;;5.22;100.00;100398.59;1748851;82;20970;-89
2022/01/29 09:46:44;;;;;;;10.40;3.60;;;;;;;5.33;100.00;100397.53;1748544;80;21601;-88
2022/01/29 09:49:10;;;;;;;6.08;3.02;;;;;;;5.32;100.00;100398.55;1748006;82;21055;-91
2022/01/29 09:54:06;;;;;;;7.15;3.42;;;;;;;5.24;100.00;100415.75;1692595;84;21074;-89
2022/01/29 09:56:33;;;;;;;6.22;3.45;;;;;;;5.21;100.00;100408.19;1693147;84;21092;-89
2022/01/29 09:58:59;;;;;;;6.53;3.33;;;;;;;5.22;100.00;100414.62;1692966;83;21178;-89
2022/01/29 10:01:33;;;;;;;7.78;3.42;;;;;;;5.22;100.00;100417.83;1693218;84;20950;-90
2022/01/29 10:04:09;;;;;;;8.95;3.98;;;;;;;5.17;100.00;100417.16;1636177;87;21072;-90
2022/01/29 10:06:36;;;;;;;5.97;3.20;;;;;;;5.04;100.00;100417.38;1633802;86;21115;-93
2022/01/29 10:09:09;;;;;;;8.00;4.00;;;;;;;4.94;100.00;100421.09;1610591;87;21123;-92
2022/01/29 10:11:52;;;;;;;;;;;;;;;;;;;;;
2022/01/29 10:19:32;;;;;;;7.15;3.45;;;;;;;4.81;100.00;100418.09;1505485;91;21180;-90
2022/01/29 10:21:58;;;;;;;6.37;3.45;;;;;;;4.85;100.00;100425.12;1512098;94;21217;-89
2022/01/29 10:24:24;;;;;;;6.20;3.20;;;;;;;4.85;100.00;100421.13;1512053;94;21033;-89
2022/01/29 10:26:57;;;;;;;5.60;3.25;;;;;;;4.81;100.00;100430.11;1511797;93;21065;-87
2022/01/29 10:29:35;;;;;;;6.08;3.02;;;;;;;4.77;100.00;100426.27;1476183;94;21145;-89
2022/01/29 10:32:02;;;;;;;5.55;3.62;;;;;;;4.77;100.00;100426.27;1476652;96;21239;-88
2022/01/29 10:34:31;;;;;;;8.65;3.05;;;;;;;4.84;100.00;100426.18;1477226;96;21569;-89
2022/01/29 10:37:17;;;;;;;7.97;3.25;;;;;;;4.97;100.00;100432.66;1476887;96;21228;-89
2022/01/29 10:39:55;;;;;;;6.05;3.02;;;;;;;5.06;100.00;100433.16;1476975;96;21212;-88
2022/01/29 10:42:28;;;;;;;7.10;3.22;;;;;;;5.26;100.00;100441.69;1477095;96;21745;-88
2022/01/29 10:44:56;;;;;;;;;;;;;;;5.32;100.00;100447.45;1483708;96;21099;-89
2022/01/29 10:47:23;;;;;;;8.68;2.80;;;;;;;5.39;100.00;100442.84;1486185;96;20427;-89
2022/01/29 10:50:01;;;;;;;6.67;2.98;;;;;;;5.37;100.00;100437.44;1486177;95;21822;-90
2022/01/29 10:52:33;;;;;;;7.42;3.17;;;;;;;5.43;100.00;100449.88;1508488;95;21020;-92
2022/01/29 10:55:04;;;;;;;7.75;3.83;;;;;;;5.34;100.00;100448.05;1490200;95;21122;-92
2022/01/29 10:57:34;;;;;;;7.30;3.47;;;;;;;5.26;100.00;100459.06;1490091;95;21031;-90
2022/01/29 11:00:03;;;;;;;4.78;2.87;;;;;;;5.15;100.00;100461.20;1521654;89;21315;-93
2022/01/29 11:02:30;;;;;;;5.70;3.12;;;;;;;5.12;100.00;100461.66;1600772;89;21156;-92
2022/01/29 11:05:02;;;;;;;7.40;3.20;;;;;;;4.97;100.00;100464.70;1600616;89;21112;-90
2022/01/29 11:07:32;;;;;;;6.08;3.25;;;;;;;4.85;100.00;100462.50;1600604;88;21104;-91
2022/01/29 11:10:05;;;;;;;6.78;3.15;;;;;;;4.75;100.00;100468.38;1556733;90;21088;-90
2022/01/29 11:12:31;;;;;;;6.30;3.10;;;;;;;4.64;100.00;100463.27;1563518;91;21099;-92
2022/01/29 11:15:01;;;;;;;7.33;3.22;;;;;;;4.58;100.00;100470.02;1564020;91;21608;-91
2022/01/29 11:17:30;;;;;;;6.60;3.50;;;;;;;4.52;100.00;100471.20;1563639;90;21084;-92
2022/01/29 11:20:00;;;;;;;7.45;3.60;;;;;;;4.39;100.00;100467.89;1550986;91;21129;-92
2022/01/29 11:22:37;;;;;;;7.80;3.72;;;;;;;4.27;100.00;100473.95;1511701;94;21097;-94
2022/01/29 11:25:08;;;;;;;5.95;3.15;;;;;;;4.22;100.00;100476.98;1513746;93;21586;-91
2022/01/29 11:27:41;;;;;;;7.42;3.62;;;;;;;4.12;100.00;100480.16;1501624;94;21206;-93
2022/01/29 11:30:14;;;;;;;7.37;3.67;;;;;;;4.08;100.00;100478.43;1511633;94;21112;-91
2022/01/29 11:32:42;;;;;;;;;;;;;;;4.02;100.00;100476.64;1514124;94;21127;-94
2022/01/29 11:35:15;;;;;;;7.80;3.65;;;;;;;3.97;100.00;100481.84;1511863;93;20599;-93
2022/01/29 11:38:07;;;;;;;7.45;3.25;;;;;;;3.91;100.00;100479.21;1512076;94;21231;-92
2022/01/29 11:40:58;;;;;;;10.20;4.42;;;;;;;3.91;100.00;100485.35;1511778;94;21139;-91
2022/01/29 11:43:27;;;;;;;10.03;4.15;;;;;;;3.81;100.00;100486.38;1515381;90;21104;-90
2022/01/29 11:46:05;;;;;;;9.78;3.83;;;;;;;3.71;100.00;100489.55;1558145;92;21078;-90
2022/01/29 11:48:50;;;;;;;9.30;4.22;;;;;;;3.67;100.00;100491.51;1595268;89;21106;-89
2022/01/29 11:51:10;;;;;;;5.78;3.02;;;;;;;3.62;100.00;100494.32;1609394;85;21123;-88
2022/01/29 11:53:50;;;;;;;9.90;4.30;;;;;;;3.56;100.00;100501.00;1642194;85;21922;-89
2022/01/29 11:56:33;;;;;;;6.80;3.77;;;;;;;3.55;100.00;100505.52;1642190;85;21580;-91
2022/01/29 11:59:22;;;;;;;7.12;3.95;;;;;;;3.53;100.00;100500.11;1641108;85;21087;-89
2022/01/29 12:02:02;;;;;;;8.00;3.98;;;;;;;3.49;100.00;100508.23;1642007;85;21052;-91
2022/01/29 12:05:00;;;;;;;7.97;3.62;;;;;;;3.49;100.00;100506.39;1642153;85;21068;-89